createdAt,value
2023-01-19T00:01:58.202Z,7.93
2023-01-19T00:04:26.486Z,5.37
2023-01-19T00:06:54.344Z,7.50
2023-01-19T00:09:22.972Z,7.70
2023-01-19T00:11:51.215Z,5.95
2023-01-19T00:14:19.057Z,7.82
2023-01-19T00:16:46.917Z,8.15
2023-01-19T00:19:15.172Z,5.68
2023-01-19T00:21:43.033Z,9.80
2023-01-19T00:24:14.449Z,4.82
2023-01-19T00:26:43.101Z,8.32
2023-01-19T00:29:12.186Z,8.02
2023-01-19T00:31:40.113Z,4.65
2023-01-19T00:34:08.758Z,5.03
2023-01-19T00:36:36.683Z,7.22
2023-01-19T00:39:07.356Z,4.62
2023-01-19T00:42:04.638Z,7.32
2023-01-19T00:44:32.432Z,9.93
2023-01-19T00:47:01.350Z,6.50
2023-01-19T00:49:29.317Z,6.22
2023-01-19T00:51:57.578Z,6.22
2023-01-19T00:54:27.541Z,7.25
2023-01-19T00:56:55.470Z,9.48
2023-01-19T00:59:26.329Z,10.80
2023-01-19T01:01:54.803Z,6.18
2023-01-19T01:04:22.887Z,9.45
2023-01-19T01:06:50.752Z,9.07
2023-01-19T01:09:19.032Z,7.95
2023-01-19T01:11:46.908Z,8.82
2023-01-19T01:14:14.782Z,5.45
2023-01-19T01:16:43.118Z,8.80
2023-01-19T01:19:11.093Z,5.62
2023-01-19T01:21:39.087Z,8.52
2023-01-19T01:24:08.189Z,6.15
2023-01-19T01:26:36.175Z,6.28
2023-01-19T01:29:05.911Z,5.72
2023-01-19T01:31:34.337Z,6.03
2023-01-19T01:34:02.283Z,6.60
2023-01-19T01:36:32.589Z,8.82
2023-01-19T01:39:01.105Z,7.87
2023-01-19T01:41:32.725Z,5.85
2023-01-19T01:44:03.252Z,5.63
2023-01-19T01:46:32.166Z,5.07
2023-01-19T01:49:08.235Z,5.55
2023-01-19T01:51:47.250Z,5.00
2023-01-19T01:54:32.772Z,5.10
2023-01-19T01:57:07.053Z,6.62
2023-01-19T01:59:39.561Z,5.68
2023-01-19T02:02:30.453Z,7.07
2023-01-19T02:05:07.025Z,4.25
2023-01-19T02:08:05.239Z,5.65
2023-01-19T02:10:52.989Z,5.72
2023-01-19T02:13:21.831Z,4.12
2023-01-19T02:16:00.119Z,6.95
2023-01-19T02:18:30.287Z,6.07
2023-01-19T02:21:01.572Z,3.35
2023-01-19T02:23:47.726Z,3.65
2023-01-19T02:26:20.794Z,5.30
2023-01-19T02:29:01.353Z,3.95
2023-01-19T02:31:31.860Z,4.75
2023-01-19T02:34:04.297Z,6.37
2023-01-19T02:36:43.671Z,5.72
2023-01-19T02:39:13.178Z,5.35
2023-01-19T02:41:49.331Z,5.62
2023-01-19T02:44:18.922Z,3.40
2023-01-19T02:46:47.146Z,4.37
2023-01-19T02:49:15.081Z,4.57
2023-01-19T02:51:44.812Z,4.60
2023-01-19T02:54:28.879Z,5.22
2023-01-19T02:57:18.485Z,6.45
2023-01-19T03:00:10.992Z,3.97
2023-01-19T03:03:06.701Z,3.28
2023-01-19T03:06:16.680Z,4.72
2023-01-19T03:09:11.809Z,7.28
2023-01-19T03:11:45.163Z,2.95
2023-01-19T03:16:48.926Z,4.22
2023-01-19T03:19:16.776Z,4.30
2023-01-19T03:21:48.328Z,5.03
2023-01-19T03:24:18.553Z,4.40
2023-01-19T03:26:52.481Z,5.43
2023-01-19T03:29:27.705Z,4.53
2023-01-19T03:32:00.219Z,4.50
2023-01-19T03:34:29.911Z,6.30
2023-01-19T03:37:03.432Z,6.35
2023-01-19T03:39:31.966Z,3.53
2023-01-19T03:42:11.733Z,6.65
2023-01-19T03:44:42.044Z,4.80
2023-01-19T03:47:12.511Z,4.75
2023-01-19T03:49:45.635Z,2.45
2023-01-19T03:52:14.471Z,4.72
2023-01-19T03:54:42.731Z,5.97
2023-01-19T03:57:10.614Z,4.50
2023-01-19T03:59:38.837Z,5.12
2023-01-19T04:02:06.738Z,4.62
2023-01-19T04:04:35.000Z,4.35
2023-01-19T04:07:02.902Z,3.97
2023-01-19T04:09:30.743Z,3.90
2023-01-19T04:11:59.026Z,5.12
2023-01-19T04:14:26.819Z,3.08
2023-01-19T04:16:54.553Z,5.68
2023-01-19T04:19:22.920Z,3.92
2023-01-19T04:21:51.475Z,6.75
2023-01-19T04:24:19.412Z,5.00
2023-01-19T04:26:47.725Z,4.68
2023-01-19T04:29:15.656Z,5.80
2023-01-19T04:31:43.819Z,3.25
2023-01-19T04:34:14.851Z,4.35
2023-01-19T04:36:47.062Z,5.12
2023-01-19T04:39:18.722Z,3.33
2023-01-19T04:41:46.516Z,4.47
2023-01-19T04:44:14.911Z,5.03
2023-01-19T04:46:43.032Z,3.22
2023-01-19T04:49:11.193Z,3.17
2023-01-19T04:51:39.085Z,3.83
2023-01-19T04:54:10.703Z,4.95
2023-01-19T04:56:38.871Z,2.15
2023-01-19T04:59:07.326Z,5.72
2023-01-19T05:01:35.745Z,3.47
2023-01-19T05:04:06.671Z,4.57
2023-01-19T05:06:35.562Z,2.97
2023-01-19T05:09:04.875Z,3.30
2023-01-19T05:11:32.698Z,3.15
2023-01-19T05:14:00.972Z,5.95
2023-01-19T05:16:28.809Z,4.10
2023-01-19T05:18:57.087Z,3.62
2023-01-19T05:21:25.345Z,5.45
2023-01-19T05:23:53.376Z,4.78
2023-01-19T05:26:24.276Z,5.37
2023-01-19T05:28:52.535Z,3.22
2023-01-19T05:31:20.423Z,5.45
2023-01-19T05:33:49.321Z,4.68
2023-01-19T05:36:17.714Z,3.72
2023-01-19T05:38:45.627Z,4.95
2023-01-19T05:41:18.016Z,4.95
2023-01-19T05:43:49.101Z,5.12
2023-01-19T05:46:16.986Z,4.45
2023-01-19T05:48:45.475Z,3.85
2023-01-19T05:51:13.777Z,3.22
2023-01-19T05:53:42.041Z,6.87
2023-01-19T05:56:13.318Z,5.68
2023-01-19T05:58:41.741Z,3.03
2023-01-19T06:01:16.709Z,6.57
2023-01-19T06:03:45.065Z,2.72
2023-01-19T06:06:15.249Z,3.28
2023-01-19T06:08:43.018Z,5.65
2023-01-19T06:11:12.109Z,5.45
2023-01-19T06:13:41.955Z,6.28
2023-01-19T06:16:11.927Z,5.25
2023-01-19T06:18:40.743Z,5.72
2023-01-19T06:21:10.235Z,5.75
2023-01-19T06:23:38.009Z,4.53
2023-01-19T06:26:06.490Z,4.53
2023-01-19T06:28:34.554Z,4.55
2023-01-19T06:31:02.608Z,3.78
2023-01-19T06:33:34.436Z,6.57
2023-01-19T06:36:02.411Z,5.97
2023-01-19T06:38:32.300Z,5.57
2023-01-19T06:41:04.348Z,6.20
2023-01-19T06:43:33.087Z,3.50
2023-01-19T06:46:02.139Z,5.20
2023-01-19T06:48:31.110Z,5.70
2023-01-19T06:51:00.223Z,4.45
2023-01-19T06:53:29.409Z,6.60
2023-01-19T06:56:02.102Z,5.15
2023-01-19T06:58:31.984Z,3.78
2023-01-19T07:01:07.306Z,3.62
2023-01-19T07:03:39.599Z,4.62
2023-01-19T07:06:09.478Z,4.97
2023-01-19T07:08:38.962Z,3.78
2023-01-19T07:11:26.362Z,5.07
2023-01-19T07:14:00.286Z,5.60
2023-01-19T07:16:29.788Z,3.50
2023-01-19T07:18:58.665Z,5.75
2023-01-19T07:21:32.077Z,5.05
2023-01-19T07:24:02.040Z,3.78
2023-01-19T07:26:32.051Z,5.62
2023-01-19T07:29:04.218Z,4.65
2023-01-19T07:31:35.950Z,3.47
2023-01-19T07:34:03.943Z,6.18
2023-01-19T07:36:34.168Z,4.93
2023-01-19T07:39:03.527Z,5.57
2023-01-19T07:41:35.626Z,4.05
2023-01-19T07:44:08.098Z,5.82
2023-01-19T07:46:38.444Z,4.53
2023-01-19T07:49:10.894Z,3.62
2023-01-19T07:51:39.207Z,5.35
2023-01-19T07:54:08.970Z,5.57
2023-01-19T07:56:37.156Z,4.62
2023-01-19T07:59:05.366Z,4.45
2023-01-19T08:01:35.317Z,4.72
2023-01-19T08:04:04.956Z,6.25
2023-01-19T08:06:37.365Z,6.12
2023-01-19T08:09:07.332Z,4.15
2023-01-19T08:11:37.176Z,4.80
2023-01-19T08:14:09.655Z,5.75
2023-01-19T08:16:38.809Z,3.17
2023-01-19T08:19:08.728Z,4.30
2023-01-19T08:21:40.171Z,5.37
2023-01-19T08:24:22.526Z,7.62
2023-01-19T08:26:51.454Z,4.40
2023-01-19T08:29:24.856Z,6.25
2023-01-19T08:31:59.113Z,3.58
2023-01-19T08:34:35.908Z,5.78
2023-01-19T08:37:05.360Z,3.33
2023-01-19T08:39:34.234Z,3.58
2023-01-19T08:42:04.567Z,5.72
2023-01-19T08:44:33.004Z,6.35
2023-01-19T08:47:02.602Z,6.80
2023-01-19T08:49:32.754Z,6.03
2023-01-19T08:52:03.419Z,5.18
2023-01-19T08:54:32.120Z,5.75
2023-01-19T08:57:05.343Z,5.80
2023-01-19T08:59:38.083Z,2.35
2023-01-19T09:02:10.882Z,4.77
2023-01-19T09:04:44.703Z,6.90
2023-01-19T09:07:16.116Z,5.00
2023-01-19T09:09:46.407Z,5.37
2023-01-19T09:12:15.188Z,5.12
2023-01-19T09:14:45.789Z,5.62
2023-01-19T09:17:22.663Z,3.95
2023-01-19T09:19:51.081Z,5.90
2023-01-19T09:22:23.342Z,5.18
2023-01-19T09:24:56.359Z,7.10
2023-01-19T09:27:27.395Z,7.12
2023-01-19T09:29:58.127Z,7.30
2023-01-19T09:32:30.895Z,5.75
2023-01-19T09:35:00.548Z,6.78
2023-01-19T09:37:32.504Z,4.97
2023-01-19T09:40:03.289Z,5.35
2023-01-19T09:42:51.528Z,7.95
2023-01-19T09:45:41.164Z,4.93
2023-01-19T09:48:49.194Z,5.30
2023-01-19T09:51:34.293Z,4.35
2023-01-19T09:54:18.640Z,5.68
2023-01-19T09:56:52.359Z,6.85
2023-01-19T09:59:34.184Z,6.97
2023-01-19T10:02:23.022Z,5.07
2023-01-19T10:05:34.589Z,5.28
2023-01-19T10:08:33.446Z,7.62
2023-01-19T10:11:27.485Z,8.23
2023-01-19T10:14:00.389Z,5.55
2023-01-19T10:16:53.109Z,9.45
2023-01-19T10:19:35.091Z,6.18
2023-01-19T10:22:25.947Z,9.07
2023-01-19T10:25:02.171Z,8.02
2023-01-19T10:27:35.847Z,6.03
2023-01-19T10:30:08.874Z,4.62
2023-01-19T10:32:42.133Z,5.15
2023-01-19T10:35:24.478Z,8.70
2023-01-19T10:38:05.374Z,7.18
2023-01-19T10:40:40.933Z,9.73
2023-01-19T10:43:36.509Z,9.70
2023-01-19T10:46:23.717Z,3.05
2023-01-19T10:48:56.393Z,7.60
2023-01-19T10:51:27.941Z,10.38
2023-01-19T10:56:36.782Z,4.55
2023-01-19T10:59:07.617Z,6.28
2023-01-19T11:01:38.228Z,5.20
2023-01-19T11:04:30.955Z,7.00
2023-01-19T11:07:20.580Z,5.68
2023-01-19T11:09:51.627Z,7.35
2023-01-19T11:12:26.765Z,6.57
2023-01-19T11:15:28.183Z,6.70
2023-01-19T11:18:00.143Z,4.62
2023-01-19T11:20:37.271Z,5.82
2023-01-19T11:23:09.165Z,4.25
2023-01-19T11:25:46.250Z,7.57
2023-01-19T11:28:30.423Z,6.75
2023-01-19T11:31:06.650Z,9.93
2023-01-19T11:33:45.710Z,7.50
2023-01-19T11:36:21.317Z,5.35
2023-01-19T11:38:57.746Z,6.10
2023-01-19T11:41:37.884Z,6.72
2023-01-19T11:44:23.215Z,9.30
2023-01-19T11:47:21.122Z,6.75
2023-01-19T11:50:02.984Z,6.70
2023-01-19T11:52:59.515Z,5.90
2023-01-19T11:56:01.282Z,6.93
2023-01-19T11:58:35.665Z,6.35
2023-01-19T12:01:23.719Z,7.50
2023-01-19T12:04:09.942Z,5.57
2023-01-19T12:07:09.252Z,7.37
2023-01-19T12:09:52.556Z,5.65
2023-01-19T12:12:31.299Z,6.50
2023-01-19T12:15:13.426Z,3.10
2023-01-19T12:18:00.272Z,6.85
2023-01-19T12:20:47.532Z,11.60
2023-01-19T12:26:52.673Z,6.62
2023-01-19T12:29:25.750Z,4.57
2023-01-19T12:32:19.599Z,6.40
2023-01-19T12:37:47.584Z,7.60
2023-01-19T12:40:29.148Z,5.43
2023-01-19T12:43:03.412Z,4.82
2023-01-19T12:45:40.147Z,7.32
2023-01-19T12:48:26.603Z,7.45
2023-01-19T12:50:58.809Z,5.00
2023-01-19T12:56:27.554Z,8.32
2023-01-19T12:59:00.291Z,7.12
2023-01-19T13:01:29.201Z,8.02
2023-01-19T13:04:04.689Z,6.93
2023-01-19T13:06:51.235Z,4.70
2023-01-19T13:09:31.017Z,5.57
2023-01-19T13:12:25.869Z,9.30
2023-01-19T13:18:36.660Z,7.95
2023-01-19T13:21:08.991Z,4.85
2023-01-19T13:23:52.747Z,8.35
2023-01-19T13:26:28.333Z,9.35
2023-01-19T13:29:27.533Z,8.15
2023-01-19T13:32:03.301Z,5.57
2023-01-19T13:34:41.558Z,6.55
2023-01-19T13:37:21.958Z,5.30
2023-01-19T13:39:55.961Z,9.23
2023-01-19T13:42:34.966Z,5.78
2023-01-19T13:45:13.884Z,7.85
2023-01-19T13:47:50.886Z,5.62
2023-01-19T13:50:24.183Z,8.80
2023-01-19T13:53:00.822Z,6.60
2023-01-19T13:55:35.447Z,4.10
2023-01-19T13:58:05.388Z,7.43
2023-01-19T14:00:39.305Z,10.02
2023-01-19T14:05:54.673Z,9.45
2023-01-19T14:08:28.292Z,5.72
2023-01-19T14:11:00.385Z,9.85
2023-01-19T14:13:43.668Z,5.22
2023-01-19T14:16:21.309Z,10.05
2023-01-19T14:19:02.666Z,9.57
2023-01-19T14:21:44.795Z,8.15
2023-01-19T14:24:22.484Z,7.95
2023-01-19T14:26:57.140Z,8.07
2023-01-19T14:29:38.497Z,7.43
2023-01-19T14:32:19.948Z,7.45
2023-01-19T14:35:10.314Z,6.12
2023-01-19T14:37:56.111Z,7.43
2023-01-19T14:40:27.184Z,9.88
2023-01-19T14:43:03.488Z,6.68
2023-01-19T14:45:42.037Z,9.40
2023-01-19T14:48:18.388Z,9.23
2023-01-19T14:51:06.099Z,8.90
2023-01-19T14:53:40.479Z,7.00
2023-01-19T14:56:10.033Z,7.68
2023-01-19T14:58:39.943Z,9.93
2023-01-19T15:03:45.793Z,7.87
2023-01-19T15:06:23.817Z,4.87
2023-01-19T15:08:57.173Z,7.85
2023-01-19T15:11:35.457Z,8.27
2023-01-19T15:14:07.958Z,6.68
2023-01-19T15:16:37.108Z,9.48
2023-01-19T15:19:08.076Z,8.95
2023-01-19T15:21:42.428Z,11.25
2023-01-19T15:24:18.309Z,10.52
2023-01-19T15:26:47.397Z,6.87
2023-01-19T15:29:28.948Z,9.70
2023-01-19T15:32:07.534Z,6.62
2023-01-19T15:34:44.050Z,10.20
2023-01-19T15:37:17.608Z,11.55
2023-01-19T15:39:52.251Z,11.68
2023-01-19T15:42:27.786Z,11.27
2023-01-19T15:47:35.877Z,10.40
2023-01-19T15:50:07.851Z,9.70
2023-01-19T15:52:41.375Z,9.98
2023-01-19T15:55:18.950Z,11.80
2023-01-19T15:57:50.551Z,10.00
2023-01-19T16:00:22.379Z,9.43
2023-01-19T16:02:52.832Z,9.93
2023-01-19T16:05:30.584Z,11.75
2023-01-19T16:08:09.687Z,12.20
2023-01-19T16:10:44.278Z,11.82
2023-01-19T16:13:18.342Z,11.65
2023-01-19T16:15:50.334Z,5.30
2023-01-19T16:18:39.416Z,14.87
2023-01-19T16:21:11.094Z,11.65
2023-01-19T16:23:46.797Z,12.50
2023-01-19T16:26:29.361Z,13.57
2023-01-19T16:29:11.257Z,10.82
2023-01-19T16:31:45.133Z,11.80
2023-01-19T16:34:19.606Z,12.57
2023-01-19T16:36:48.265Z,9.95
2023-01-19T16:39:16.535Z,11.55
2023-01-19T16:41:47.407Z,13.35
2023-01-19T16:44:19.405Z,8.82
2023-01-19T16:46:50.758Z,6.10
2023-01-19T16:49:33.669Z,10.98
2023-01-19T16:52:02.731Z,10.15
2023-01-19T16:54:33.913Z,11.07
2023-01-19T16:57:06.965Z,8.65
2023-01-19T16:59:42.028Z,9.50
2023-01-19T17:02:22.950Z,11.43
2023-01-19T17:04:56.030Z,8.95
2023-01-19T17:07:33.136Z,10.45
2023-01-19T17:10:05.905Z,7.62
2023-01-19T17:12:40.503Z,8.50
2023-01-19T17:15:11.768Z,8.23
2023-01-19T17:17:41.402Z,9.98
2023-01-19T17:20:14.699Z,8.48
2023-01-19T17:22:44.263Z,13.05
2023-01-19T17:25:16.554Z,5.47
2023-01-19T17:27:46.069Z,9.40
2023-01-19T17:30:18.870Z,9.60
2023-01-19T17:32:51.164Z,12.35
2023-01-19T17:35:22.434Z,12.43
2023-01-19T17:37:58.919Z,9.65
2023-01-19T17:40:33.285Z,9.27
2023-01-19T17:43:12.582Z,11.23
2023-01-19T17:46:00.917Z,8.15
2023-01-19T17:48:33.011Z,11.57
2023-01-19T17:51:15.682Z,9.30
2023-01-19T17:53:44.608Z,5.05
2023-01-19T17:56:20.293Z,12.73
2023-01-19T17:58:57.038Z,9.68
2023-01-19T18:01:37.284Z,12.80
2023-01-19T18:04:08.135Z,6.62
2023-01-19T18:06:40.980Z,10.77
2023-01-19T18:09:13.092Z,5.10
2023-01-19T18:11:45.258Z,13.95
2023-01-19T18:14:17.043Z,10.73
2023-01-19T18:16:50.200Z,12.18
2023-01-19T18:19:22.527Z,11.12
2023-01-19T18:21:55.969Z,13.60
2023-01-19T18:24:25.994Z,11.93
2023-01-19T18:26:58.030Z,12.32
2023-01-19T18:29:47.936Z,9.98
2023-01-19T18:32:31.919Z,14.40
2023-01-19T18:35:03.086Z,7.50
2023-01-19T18:37:39.080Z,11.88
2023-01-19T18:40:10.834Z,12.00
2023-01-19T18:42:55.292Z,11.12
2023-01-19T18:45:25.825Z,13.55
2023-01-19T18:48:00.758Z,11.18
2023-01-19T18:50:30.650Z,9.73
2023-01-19T18:53:03.352Z,12.35
2023-01-19T18:55:39.009Z,16.87
2023-01-19T18:58:10.784Z,6.28
2023-01-19T19:00:41.090Z,9.45
2023-01-19T19:03:17.017Z,10.60
2023-01-19T19:05:47.542Z,9.05
2023-01-19T19:08:17.219Z,6.03
2023-01-19T19:10:47.457Z,11.02
2023-01-19T19:13:22.155Z,12.77
2023-01-19T19:15:53.133Z,8.27
2023-01-19T19:18:24.681Z,9.18
2023-01-19T19:20:54.272Z,7.45
2023-01-19T19:23:24.946Z,10.20
2023-01-19T19:25:53.640Z,10.13
2023-01-19T19:28:24.847Z,10.82
2023-01-19T19:31:12.522Z,13.10
2023-01-19T19:33:44.821Z,11.15
2023-01-19T19:36:16.339Z,8.40
2023-01-19T19:38:47.461Z,8.23
2023-01-19T19:41:27.281Z,9.57
2023-01-19T19:43:57.695Z,12.40
2023-01-19T19:46:28.056Z,11.38
2023-01-19T19:48:56.927Z,5.80
2023-01-19T19:51:27.429Z,8.48
2023-01-19T19:54:00.637Z,8.48
2023-01-19T19:56:32.715Z,11.10
2023-01-19T19:59:02.305Z,11.85
2023-01-19T20:01:33.867Z,9.77
2023-01-19T20:04:13.573Z,5.72
2023-01-19T20:06:46.869Z,8.82
2023-01-19T20:09:19.357Z,10.07
2023-01-19T20:11:49.616Z,13.95
2023-01-19T20:14:19.091Z,9.10
2023-01-19T20:16:47.260Z,11.50
2023-01-19T20:19:18.435Z,9.23
2023-01-19T20:21:46.975Z,11.55
2023-01-19T20:24:20.554Z,7.22
2023-01-19T20:26:52.959Z,6.15
2023-01-19T20:29:24.482Z,10.07
2023-01-19T20:31:56.215Z,12.23
2023-01-19T20:34:33.189Z,13.82
2023-01-19T20:37:04.357Z,13.52
2023-01-19T20:39:37.121Z,5.47
2023-01-19T20:44:34.409Z,13.57
2023-01-19T20:47:02.332Z,11.45
2023-01-19T20:49:30.419Z,13.18
2023-01-19T20:51:58.734Z,12.43
2023-01-19T20:54:28.701Z,11.75
2023-01-19T20:56:57.879Z,7.07
2023-01-19T20:59:26.079Z,11.85
2023-01-19T21:01:53.931Z,12.75
2023-01-19T21:04:22.742Z,13.65
2023-01-19T21:06:50.618Z,9.05
2023-01-19T21:09:18.955Z,9.45
2023-01-19T21:11:47.165Z,12.93
2023-01-19T21:14:14.970Z,13.60
2023-01-19T21:16:43.669Z,7.25
2023-01-19T21:19:12.863Z,10.68
2023-01-19T21:21:44.008Z,11.77
2023-01-19T21:24:12.354Z,12.52
2023-01-19T21:26:41.981Z,9.02
2023-01-19T21:29:13.538Z,10.30
2023-01-19T21:31:42.046Z,11.13
2023-01-19T21:34:10.235Z,12.25
2023-01-19T21:36:38.126Z,9.85
2023-01-19T21:39:08.386Z,10.23
2023-01-19T21:41:40.570Z,12.48
2023-01-19T21:44:10.683Z,10.82
2023-01-19T21:46:39.144Z,9.13
2023-01-19T21:49:08.731Z,11.43
2023-01-19T21:51:37.336Z,11.75
2023-01-19T21:54:06.951Z,7.93
2023-01-19T21:56:43.534Z,11.07
2023-01-19T21:59:15.898Z,12.20
2023-01-19T22:01:45.919Z,10.50
2023-01-19T22:04:14.354Z,11.32
2023-01-19T22:06:42.267Z,11.48
2023-01-19T22:09:10.189Z,14.23
2023-01-19T22:11:38.453Z,10.55
2023-01-19T22:14:06.402Z,13.32
2023-01-19T22:16:34.215Z,9.13
2023-01-19T22:19:07.636Z,10.38
2023-01-19T22:24:10.013Z,11.02
2023-01-19T22:26:37.981Z,13.35
2023-01-19T22:29:12.129Z,11.43
2023-01-19T22:31:40.493Z,11.50
2023-01-19T22:34:12.150Z,11.80
2023-01-19T22:36:40.134Z,10.98
2023-01-19T22:39:10.903Z,10.35
2023-01-19T22:41:47.070Z,9.27
2023-01-19T22:44:18.136Z,9.95
2023-01-19T22:46:45.889Z,11.23
2023-01-19T22:49:15.836Z,10.20
2023-01-19T22:51:46.501Z,11.55
2023-01-19T22:54:14.253Z,9.65
2023-01-19T22:56:42.375Z,6.90
2023-01-19T22:59:10.532Z,8.07
2023-01-19T23:01:41.409Z,7.07
2023-01-19T23:04:13.340Z,10.32
2023-01-19T23:06:41.581Z,7.03
2023-01-19T23:09:13.216Z,7.53
2023-01-19T23:11:44.332Z,6.62
2023-01-19T23:14:15.272Z,10.32
2023-01-19T23:16:43.425Z,9.40
2023-01-19T23:19:12.583Z,6.55
2023-01-19T23:21:42.202Z,8.20
2023-01-19T23:24:10.724Z,9.55
2023-01-19T23:26:39.095Z,8.32
2023-01-19T23:29:16.297Z,6.62
2023-01-19T23:31:47.391Z,7.50
2023-01-19T23:34:15.605Z,8.77
2023-01-19T23:36:44.679Z,12.05
2023-01-19T23:39:20.004Z,11.77
2023-01-19T23:41:51.250Z,9.23
2023-01-19T23:44:19.770Z,9.00
2023-01-19T23:46:50.810Z,9.07
2023-01-19T23:49:19.139Z,8.85
2023-01-19T23:51:46.996Z,10.70
2023-01-19T23:54:14.863Z,9.65
2023-01-19T23:56:43.104Z,7.95
2023-01-19T23:59:16.041Z,8.48
